Hovedside
METAR-TAF:

METAR-TAF

Lufthavner :

Sandane lufthamn. Anda

Sandane, Norge

breddegrad: 61-50N, lengdegrad: 006-07E, høyde over havet: 6 m

Gjeldene værobservasjon

Denne rapporten ble laget for 15 minutter siden, klokken 04:50 UTC
Vind 2 kt fra skiftende retning
Temperatur 14°C
Luftfuktighet 44%
Trykk 1010 hPa
Sikt 10 km eller mer
Brutte skyer i en høyde av 6500 ft

METAR: ENSD 250450Z VRB02KT 9999 BKN065 14/02 Q1010 RMK WIND 1138FT 15012KT

Tid: 07:05 (05:05 UTC)


TAF: fraværende

Værobservasjoner og værvarsel for over 4000 flyplasser (METAR- og TAF-rapporter).

Tilgjengelige stasjoner er representert av de røde og gule prikkene på kartet.

Hold musepekeren over prikken for å se navnet på stasjonen.

Klikk så for å se værobservasjoner og -varsler.

For å forandre kartet kan du klikke på den grønne knappen med svart kryss for å zoome inn, på den grønne knappen med strek for å zoome ut, eller på de grønne pilene for å se tilstøtende kart.


METAR-TAF: